^^
Saratoga-Weather Station Historical Data
Daily Summary for April 16, 2020 Units:  Metric    English   Both
Daily Weekly Monthly Yearly Custom
  High: Low: Average:
Temperature: 20.2 °C 5.7 °C 13.7 °C
Dew Point: 7.1 °C 1.8 °C 4.2 °C
Humidity: 81% 34% 55%
Wind Speed: 9.7km/h 0km/h 2km/h
Wind Gust: 14.5km/h - -
Wind- - SSW
Pressure: 1022.7 hPa 1018.6 hPa -
Precipitation: 0.0 mm    
Historical Graphs
 
 
Tabular Data for April 16, 2020
Time Temperature Dew Point Pressure Wind Wind Speed Wind Gust Humidity Rainfall Rate (Hourly) solar
00:00 10.8 °C 2.1 °C 1021.0 hPa Calm   4.8 km/h 55% 0.0 mm 0 W/m2
00:05 10.7 °C 2.5 °C 1021.3 hPa NNW 1.4 km/h 1.6 km/h 57% 0.0 mm 0 W/m2
00:10 10.6 °C 1.9 °C 1021.3 hPa NNW 4.7 km/h 6.4 km/h 55% 0.0 mm 0 W/m2
00:15 10.7 °C 1.8 °C 1021.3 hPa Calm   6.4 km/h 54% 0.0 mm 0 W/m2
00:20 10.8 °C 2.1 °C 1021.3 hPa Calm   6.4 km/h 55% 0.0 mm 0 W/m2
00:25 10.8 °C 2.1 °C 1021.3 hPa NE 1.4 km/h 4.8 km/h 55% 0.0 mm 0 W/m2
00:30 10.7 °C 2 °C 1021.3 hPa North 1.4 km/h 6.4 km/h 55% 0.0 mm 0 W/m2
00:35 10.7 °C 2 °C 1021.3 hPa NW 4.7 km/h 4.8 km/h 55% 0.0 mm 0 W/m2
00:40 10.6 °C 2.2 °C 1021.3 hPa South 1.4 km/h 3.2 km/h 56% 0.0 mm 0 W/m2
00:45 10.6 °C 2.4 °C 1021.7 hPa NNE 1.4 km/h 3.2 km/h 57% 0.0 mm 0 W/m2
00:50 10.5 °C 2.3 °C 1021.7 hPa NW 3.2 km/h 3.2 km/h 57% 0.0 mm 0 W/m2
00:55 10.4 °C 2.2 °C 1021.7 hPa WNW 4.7 km/h 6.4 km/h 57% 0.0 mm 0 W/m2
01:00 10.3 °C 2.4 °C 1021.7 hPa NNW 4.7 km/h 6.4 km/h 58% 0.0 mm 0 W/m2
01:05 10.2 °C 2.5 °C 1021.7 hPa Calm   3.2 km/h 59% 0.0 mm 0 W/m2
01:11 10.1 °C 2.4 °C 1021.7 hPa WNW 3.2 km/h 6.4 km/h 59% 0.0 mm 0 W/m2
01:16 10.1 °C 2.4 °C 1021.7 hPa Calm   3.2 km/h 59% 0.0 mm 0 W/m2
01:21 10 °C 2.4 °C 1021.7 hPa West 3.2 km/h 6.4 km/h 59% 0.0 mm 0 W/m2
01:26 9.9 °C 2.7 °C 1021.7 hPa SE 3.2 km/h 3.2 km/h 61% 0.0 mm 0 W/m2
01:31 9.8 °C 2.4 °C 1021.7 hPa ESE 1.4 km/h 3.2 km/h 60% 0.0 mm 0 W/m2
01:36 9.8 °C 2.4 °C 1021.7 hPa NW 1.4 km/h 6.4 km/h 60% 0.0 mm 0 W/m2
01:41 9.7 °C 2.8 °C 1021.7 hPa West 1.4 km/h 1.6 km/h 62% 0.0 mm 0 W/m2
01:46 9.6 °C 2.9 °C 1021.7 hPa SW 1.4 km/h 6.4 km/h 63% 0.0 mm 0 W/m2
01:51 9.3 °C 2.8 °C 1021.7 hPa SSW 1.4 km/h 3.2 km/h 64% 0.0 mm 0 W/m2
01:56 9.1 °C 2.9 °C 1021.7 hPa SSW 1.4 km/h 3.2 km/h 65% 0.0 mm 0 W/m2
02:01 8.9 °C 2.7 °C 1021.7 hPa Calm   4.8 km/h 65% 0.0 mm 0 W/m2
02:06 8.9 °C 2.7 °C 1021.7 hPa Calm   1.6 km/h 65% 0.0 mm 0 W/m2
02:11 9 °C 2.8 °C 1021.7 hPa Calm   1.6 km/h 65% 0.0 mm 0 W/m2
02:16 9.1 °C 2.4 °C 1021.7 hPa Calm   3.2 km/h 63% 0.0 mm 0 W/m2
02:21 9.1 °C 2.4 °C 1021.7 hPa ENE 1.4 km/h 1.6 km/h 63% 0.0 mm 0 W/m2
02:26 9.1 °C 2.4 °C 1021.7 hPa Calm   1.6 km/h 63% 0.0 mm 0 W/m2
02:31 9 °C 2.6 °C 1021.7 hPa Calm   1.6 km/h 64% 0.0 mm 0 W/m2
02:36 8.9 °C 2.5 °C 1021.7 hPa East 1.4 km/h 3.2 km/h 64% 0.0 mm 0 W/m2
02:41 8.9 °C 2.5 °C 1021.7 hPa Calm     64% 0.0 mm 0 W/m2
02:46 8.8 °C 2.6 °C 1021.7 hPa West 1.4 km/h 3.2 km/h 65% 0.0 mm 0 W/m2
02:51 8.7 °C 2.7 °C 1021.7 hPa WSW 1.4 km/h 3.2 km/h 66% 0.0 mm 0 W/m2
02:56 8.6 °C 2.6 °C 1021.7 hPa WNW 1.4 km/h 3.2 km/h 66% 0.0 mm 0 W/m2
03:01 8.7 °C 2.7 °C 1021.7 hPa WNW 1.4 km/h 3.2 km/h 66% 0.0 mm 0 W/m2
03:06 8.6 °C 2.8 °C 1021.7 hPa SW 1.4 km/h 4.8 km/h 67% 0.0 mm 0 W/m2
03:11 8.5 °C 2.7 °C 1021.7 hPa West 3.2 km/h 3.2 km/h 67% 0.0 mm 0 W/m2
03:16 8.4 °C 2.6 °C 1021.7 hPa Calm   4.8 km/h 67% 0.0 mm 0 W/m2
03:21 8.3 °C 2.7 °C 1021.7 hPa Calm     68% 0.0 mm 0 W/m2
03:26 8.1 °C 2.5 °C 1021.3 hPa Calm   1.6 km/h 68% 0.0 mm 0 W/m2
03:31 8.1 °C 3 °C 1021.7 hPa WSW 1.4 km/h 3.2 km/h 70% 0.0 mm 0 W/m2
03:36 7.9 °C 2.6 °C 1021.3 hPa Calm   3.2 km/h 69% 0.0 mm 0 W/m2
03:41 7.9 °C 2.6 °C 1021.7 hPa Calm     69% 0.0 mm 0 W/m2
03:46 7.9 °C 2.4 °C 1021.7 hPa Calm   3.2 km/h 68% 0.0 mm 0 W/m2
03:51 8 °C 2.7 °C 1021.7 hPa ESE 1.4 km/h 3.2 km/h 69% 0.0 mm 0 W/m2
03:56 7.9 °C 2.8 °C 1021.7 hPa Calm   1.6 km/h 70% 0.0 mm 0 W/m2
04:01 7.8 °C 2.7 °C 1021.7 hPa Calm   1.6 km/h 70% 0.0 mm 0 W/m2
04:06 7.6 °C 2.7 °C 1021.3 hPa NNW 1.4 km/h 3.2 km/h 71% 0.0 mm 0 W/m2
04:11 7.4 °C 2.5 °C 1021.3 hPa Calm   1.6 km/h 71% 0.0 mm 0 W/m2
04:16 7.4 °C 2.7 °C 1021.3 hPa NNW 1.4 km/h 1.6 km/h 72% 0.0 mm 0 W/m2
04:21 7.3 °C 2.6 °C 1021.3 hPa Calm   3.2 km/h 72% 0.0 mm 0 W/m2
04:26 7.2 °C 2.5 °C 1021.7 hPa Calm   1.6 km/h 72% 0.0 mm 0 W/m2
04:31 7.2 °C 2.5 °C 1021.7 hPa West 1.4 km/h 1.6 km/h 72% 0.0 mm 0 W/m2
04:36 7.2 °C 2.5 °C 1021.7 hPa West 1.4 km/h 3.2 km/h 72% 0.0 mm 0 W/m2
04:41 7.2 °C 2.5 °C 1021.3 hPa West 1.4 km/h 3.2 km/h 72% 0.0 mm 0 W/m2
04:47 7.1 °C 2.6 °C 1021.3 hPa West 1.4 km/h 3.2 km/h 73% 0.0 mm 0 W/m2
04:52 7 °C 2.5 °C 1021.3 hPa Calm   1.6 km/h 73% 0.0 mm 0 W/m2
04:57 7 °C 2.5 °C 1021.3 hPa West 1.4 km/h 3.2 km/h 73% 0.0 mm 0 W/m2
05:02 6.9 °C 2.6 °C 1021.3 hPa West 1.4 km/h 1.6 km/h 74% 0.0 mm 0 W/m2
05:07 6.8 °C 2.5 °C 1021.3 hPa WSW 1.4 km/h 1.6 km/h 74% 0.0 mm 0 W/m2
05:12 6.8 °C 2.5 °C 1021.3 hPa WSW 1.4 km/h 3.2 km/h 74% 0.0 mm 0 W/m2
05:17 6.7 °C 2.4 °C 1021.3 hPa Calm     74% 0.0 mm 0 W/m2
05:22 6.6 °C 2.5 °C 1021.3 hPa WSW 1.4 km/h 3.2 km/h 75% 0.0 mm 0 W/m2
05:27 6.4 °C 2.5 °C 1021.3 hPa WSW 1.4 km/h 1.6 km/h 76% 0.0 mm 0 W/m2
05:32 6.3 °C 2.4 °C 1021.3 hPa Calm   1.6 km/h 76% 0.0 mm 0 W/m2
05:37 6.3 °C 2.4 °C 1021.3 hPa WSW 1.4 km/h 3.2 km/h 76% 0.0 mm 0 W/m2
05:42 6.3 °C 2.4 °C 1021.3 hPa Calm   1.6 km/h 76% 0.0 mm 0 W/m2
05:47 6.3 °C 2.4 °C 1021.3 hPa Calm   3.2 km/h 76% 0.0 mm 0 W/m2
05:52 6.3 °C 2.6 °C 1021.3 hPa Calm   1.6 km/h 77% 0.0 mm 5 W/m2
05:57 6.2 °C 2.5 °C 1021.3 hPa Calm   1.6 km/h 77% 0.0 mm 7 W/m2
06:02 6.1 °C 2.6 °C 1021.3 hPa Calm   1.6 km/h 78% 0.0 mm 9 W/m2
06:07 6 °C 2.5 °C 1021.3 hPa Calm   1.6 km/h 78% 0.0 mm 12 W/m2
06:12 5.9 °C 2.4 °C 1021.3 hPa Calm     78% 0.0 mm 14 W/m2
06:17 5.8 °C 2.3 °C 1021.3 hPa WSW 1.6 km/h 1.6 km/h 78% 0.0 mm 16 W/m2
06:22 5.8 °C 2.3 °C 1021.3 hPa Calm     78% 0.0 mm 19 W/m2
06:27 5.7 °C 2.3 °C 1021.3 hPa Calm     79% 0.0 mm 21 W/m2
06:32 5.7 °C 2.5 °C 1021.3 hPa Calm   1.6 km/h 80% 0.0 mm 23 W/m2
06:37 5.7 °C 2.5 °C 1021.3 hPa Calm   1.6 km/h 80% 0.0 mm 25 W/m2
06:42 5.7 °C 2.7 °C 1021.3 hPa Calm     81% 0.0 mm 28 W/m2
06:47 5.8 °C 2.6 °C 1021.3 hPa Calm   1.6 km/h 80% 0.0 mm 30 W/m2
06:52 5.9 °C 2.7 °C 1021.7 hPa Calm     80% 0.0 mm 32 W/m2
06:57 6.2 °C 2.8 °C 1021.7 hPa Calm     79% 0.0 mm 33 W/m2
07:02 6.4 °C 2.8 °C 1021.7 hPa Calm     78% 0.0 mm 35 W/m2
07:07 6.5 °C 2.8 °C 1021.7 hPa Calm     77% 0.0 mm 35 W/m2
07:12 6.6 °C 2.7 °C 1021.7 hPa Calm     76% 0.0 mm 37 W/m2
07:17 6.7 °C 2.6 °C 1021.7 hPa Calm   1.6 km/h 75% 0.0 mm 39 W/m2
07:22 6.9 °C 2.6 °C 1022.0 hPa WSW 1.4 km/h 3.2 km/h 74% 0.0 mm 40 W/m2
07:28 7.3 °C 2.6 °C 1022.0 hPa WNW 1.4 km/h 3.2 km/h 72% 0.0 mm 42 W/m2
07:33 7.6 °C 2.9 °C 1022.0 hPa WNW 1.4 km/h 4.8 km/h 72% 0.0 mm 44 W/m2
07:38 7.7 °C 2.8 °C 1022.0 hPa WNW 1.4 km/h 1.6 km/h 71% 0.0 mm 46 W/m2
07:43 7.9 °C 2.8 °C 1022.0 hPa WNW 1.4 km/h 4.8 km/h 70% 0.0 mm 47 W/m2
07:48 8.1 °C 3 °C 1022.0 hPa WNW 1.4 km/h 3.2 km/h 70% 0.0 mm 158 W/m2
07:53 8.2 °C 3.1 °C 1022.0 hPa NW 3.2 km/h 3.2 km/h 70% 0.0 mm 251 W/m2
07:58 8.4 °C 3 °C 1022.4 hPa NW 3.2 km/h 3.2 km/h 69% 0.0 mm 269 W/m2
08:03 8.7 °C 3.3 °C 1022.4 hPa Calm   1.6 km/h 69% 0.0 mm 281 W/m2
08:08 8.8 °C 3.4 °C 1022.4 hPa Calm   1.6 km/h 69% 0.0 mm 297 W/m2
08:13 9.2 °C 3.8 °C 1022.4 hPa Calm   1.6 km/h 69% 0.0 mm 311 W/m2
08:18 9.5 °C 4.1 °C 1022.4 hPa Calm     69% 0.0 mm 323 W/m2
08:23 9.9 °C 4.1 °C 1022.4 hPa Calm   1.6 km/h 67% 0.0 mm 338 W/m2
08:28 10.3 °C 4 °C 1022.4 hPa Calm     65% 0.0 mm 353 W/m2
08:33 10.6 °C 4.1 °C 1022.4 hPa Calm     64% 0.0 mm 364 W/m2
08:38 10.8 °C 3.6 °C 1022.4 hPa ENE 4.7 km/h 4.8 km/h 61% 0.0 mm 380 W/m2
08:43 11 °C 3.8 °C 1022.4 hPa NE 3.2 km/h 6.4 km/h 61% 0.0 mm 394 W/m2
08:48 11.2 °C 4 °C 1022.7 hPa NE 3.2 km/h 3.2 km/h 61% 0.0 mm 408 W/m2
08:53 11.1 °C 3.4 °C 1022.7 hPa ENE 1.4 km/h 1.6 km/h 59% 0.0 mm 418 W/m2
08:58 11.2 °C 3.5 °C 1022.7 hPa Calm   4.8 km/h 59% 0.0 mm 434 W/m2
09:03 11.3 °C 3.6 °C 1022.7 hPa East 3.2 km/h 4.8 km/h 59% 0.0 mm 446 W/m2
09:08 11.5 °C 3.5 °C 1022.7 hPa ESE 6.4 km/h 9.7 km/h 58% 0.0 mm 457 W/m2
09:13 11.6 °C 3.6 °C 1022.7 hPa ENE 1.4 km/h 6.4 km/h 58% 0.0 mm 468 W/m2
09:18 11.8 °C 3.8 °C 1022.7 hPa ESE 3.2 km/h 3.2 km/h 58% 0.0 mm 483 W/m2
09:23 12 °C 4 °C 1022.7 hPa East 4.7 km/h 4.8 km/h 58% 0.0 mm 496 W/m2
09:28 12.2 °C 3.7 °C 1022.7 hPa ESE 9.7 km/h 9.7 km/h 56% 0.0 mm 510 W/m2
09:33 12.4 °C 4.4 °C 1022.7 hPa East 3.2 km/h 6.4 km/h 58% 0.0 mm 519 W/m2
09:39 12.7 °C 4.4 °C 1022.7 hPa NNW 3.2 km/h 8 km/h 57% 0.0 mm 534 W/m2
09:44 12.9 °C 4.3 °C 1022.7 hPa SE 4.7 km/h 6.4 km/h 56% 0.0 mm 545 W/m2
09:49 13 °C 4.2 °C 1022.7 hPa ENE 1.4 km/h 6.4 km/h 55% 0.0 mm 557 W/m2
09:54 12.9 °C 4.3 °C 1022.7 hPa Calm   4.8 km/h 56% 0.0 mm 568 W/m2
09:59 12.9 °C 4.1 °C 1022.7 hPa ENE 1.4 km/h 3.2 km/h 55% 0.0 mm 580 W/m2
10:04 13.2 °C 4.4 °C 1022.7 hPa NE 1.4 km/h 6.4 km/h 55% 0.0 mm 591 W/m2
10:09 13.5 °C 5.1 °C 1022.7 hPa SSE 3.2 km/h 4.8 km/h 57% 0.0 mm 601 W/m2
10:14 13.6 °C 4.7 °C 1022.7 hPa East 1.4 km/h 4.8 km/h 55% 0.0 mm 74 W/m2
10:19 13.7 °C 4.6 °C 1022.7 hPa ENE 4.7 km/h 9.7 km/h 54% 0.0 mm 107 W/m2
10:24 13.6 °C 5 °C 1022.7 hPa ESE 3.2 km/h 6.4 km/h 56% 0.0 mm 629 W/m2
10:29 13.8 °C 5.2 °C 1022.4 hPa Calm   3.2 km/h 56% 0.0 mm 642 W/m2
10:34 14.1 °C 4.9 °C 1022.4 hPa NE 1.4 km/h 4.8 km/h 54% 0.0 mm 652 W/m2
10:39 14.3 °C 5.1 °C 1022.4 hPa Calm   4.8 km/h 54% 0.0 mm 663 W/m2
10:44 14.4 °C 4.9 °C 1022.4 hPa East 1.4 km/h 12.9 km/h 53% 0.0 mm 673 W/m2
10:49 14.3 °C 4.6 °C 1022.4 hPa ENE 3.2 km/h 8 km/h 52% 0.0 mm 684 W/m2
10:54 14.4 °C 5.2 °C 1022.4 hPa East 3.2 km/h 11.3 km/h 54% 0.0 mm 693 W/m2
10:59 14.6 °C 5.1 °C 1022.4 hPa SE 1.4 km/h 6.4 km/h 53% 0.0 mm 703 W/m2
11:04 14.8 °C 4.8 °C 1022.4 hPa NE 1.4 km/h 4.8 km/h 51% 0.0 mm 710 W/m2
11:09 14.8 °C 4.8 °C 1022.0 hPa Calm   4.8 km/h 51% 0.0 mm 721 W/m2
11:14 14.9 °C 5.1 °C 1022.0 hPa ESE 4.7 km/h 4.8 km/h 52% 0.0 mm 728 W/m2
11:19 15.2 °C 5.4 °C 1022.0 hPa East 1.4 km/h 3.2 km/h 52% 0.0 mm 737 W/m2
11:24 15.4 °C 5.6 °C 1022.0 hPa SE 3.2 km/h 6.4 km/h 52% 0.0 mm 745 W/m2
11:29 15.6 °C 5.8 °C 1022.0 hPa SSE 3.2 km/h 6.4 km/h 52% 0.0 mm 754 W/m2
11:34 15.6 °C 4.9 °C 1021.7 hPa WNW 4.7 km/h 4.8 km/h 49% 0.0 mm 759 W/m2
11:39 15.5 °C 5.4 °C 1021.7 hPa ENE 3.2 km/h 3.2 km/h 51% 0.0 mm 768 W/m2
11:44 15.8 °C 6 °C 1021.7 hPa SE 3.2 km/h 9.7 km/h 52% 0.0 mm 773 W/m2
11:49 16 °C 5.3 °C 1021.7 hPa ENE 3.2 km/h 6.4 km/h 49% 0.0 mm 780 W/m2
11:54 16.2 °C 6.1 °C 1021.7 hPa East 4.7 km/h 9.7 km/h 51% 0.0 mm 789 W/m2
11:59 16.4 °C 5.1 °C 1021.7 hPa WSW 1.4 km/h 3.2 km/h 47% 0.0 mm 791 W/m2
12:04 16.5 °C 5.7 °C 1021.7 hPa NNE 3.2 km/h 9.7 km/h 49% 0.0 mm 800 W/m2
12:09 16.9 °C 5.2 °C 1021.7 hPa Calm   3.2 km/h 46% 0.0 mm 803 W/m2
12:14 17.1 °C 4.7 °C 1021.7 hPa NE 1.4 km/h 9.7 km/h 44% 0.0 mm 807 W/m2
12:19 17.1 °C 5.4 °C 1021.7 hPa SSE 1.4 km/h 4.8 km/h 46% 0.0 mm 812 W/m2
12:24 17.3 °C 5.3 °C 1021.7 hPa NE 1.4 km/h 4.8 km/h 45% 0.0 mm 816 W/m2
12:29 17.4 °C 5.7 °C 1021.3 hPa Calm   1.6 km/h 46% 0.0 mm 817 W/m2
12:34 17.3 °C 4.6 °C 1021.3 hPa SW 3.2 km/h 8 km/h 43% 0.0 mm 823 W/m2
12:39 17.4 °C 5.3 °C 1021.3 hPa Calm   1.6 km/h 45% 0.0 mm 828 W/m2
12:44 17.4 °C 4.7 °C 1021.3 hPa West 1.4 km/h 4.8 km/h 43% 0.0 mm 830 W/m2
12:49 17.4 °C 4.4 °C 1021.3 hPa North 1.4 km/h 6.4 km/h 42% 0.0 mm 833 W/m2
12:54 17.4 °C 5 °C 1021.3 hPa NNE 3.2 km/h 4.8 km/h 44% 0.0 mm 833 W/m2
12:59 17.7 °C 4.3 °C 1021.3 hPa Calm   12.9 km/h 41% 0.0 mm 837 W/m2
13:04 17.8 °C 5.4 °C 1021.3 hPa West 9.7 km/h 12.9 km/h 44% 0.0 mm 835 W/m2
13:09 17.8 °C 4.7 °C 1021.3 hPa SW 6.4 km/h 12.9 km/h 42% 0.0 mm 833 W/m2
13:14 17.6 °C 4.9 °C 1021.3 hPa West 1.4 km/h 4.8 km/h 43% 0.0 mm 830 W/m2
13:19 17.6 °C 5.2 °C 1021.3 hPa East 4.7 km/h 12.9 km/h 44% 0.0 mm 838 W/m2
13:24 17.7 °C 5 °C 1021.3 hPa WNW 3.2 km/h 11.3 km/h 43% 0.0 mm 838 W/m2
13:29 17.6 °C 4.9 °C 1021.3 hPa SW 1.4 km/h 6.4 km/h 43% 0.0 mm 838 W/m2
13:34 17.7 °C 4.6 °C 1021.3 hPa Calm   11.3 km/h 42% 0.0 mm 838 W/m2
13:39 17.7 °C 5.9 °C 1021.3 hPa ESE 3.2 km/h 6.4 km/h 46% 0.0 mm 840 W/m2
13:44 17.9 °C 5.5 °C 1021.0 hPa ESE 1.4 km/h 1.6 km/h 44% 0.0 mm 837 W/m2
13:49 18.2 °C 5.1 °C 1021.0 hPa WSW 3.2 km/h 4.8 km/h 42% 0.0 mm 838 W/m2
13:54 18.3 °C 5.5 °C 1021.0 hPa NNW 3.2 km/h 4.8 km/h 43% 0.0 mm 840 W/m2
13:59 18.4 °C 4.9 °C 1021.0 hPa East 6.4 km/h 11.3 km/h 41% 0.0 mm 837 W/m2
14:04 18.4 °C 5.6 °C 1020.7 hPa SE 3.2 km/h 6.4 km/h 43% 0.0 mm 831 W/m2
14:09 18.6 °C 5.4 °C 1021.0 hPa NE 1.4 km/h 6.4 km/h 42% 0.0 mm 828 W/m2
14:14 18.6 °C 5.1 °C 1020.7 hPa NNW 3.2 km/h 8 km/h 41% 0.0 mm 826 W/m2
14:19 18.6 °C 5.4 °C 1020.7 hPa NNW 6.4 km/h 6.4 km/h 42% 0.0 mm 824 W/m2
14:24 18.7 °C 5.5 °C 1020.7 hPa WNW 1.4 km/h 4.8 km/h 42% 0.0 mm 819 W/m2
14:29 18.7 °C 5.2 °C 1020.7 hPa Calm   14.5 km/h 41% 0.0 mm 812 W/m2
14:34 18.7 °C 5.9 °C 1020.7 hPa East 1.4 km/h 3.2 km/h 43% 0.0 mm 812 W/m2
14:39 18.8 °C 4.9 °C 1020.7 hPa NE 1.4 km/h 6.4 km/h 40% 0.0 mm 809 W/m2
14:45 18.6 °C 4.7 °C 1020.7 hPa WSW 6.4 km/h 9.7 km/h 40% 0.0 mm 807 W/m2
14:50 18.6 °C 5.4 °C 1020.3 hPa Calm   3.2 km/h 42% 0.0 mm 802 W/m2
14:55 18.9 °C 6.7 °C 1020.3 hPa NW 4.7 km/h 6.4 km/h 45% 0.0 mm 803 W/m2
15:00 19.1 °C 5.2 °C 1020.3 hPa WSW 3.2 km/h 3.2 km/h 40% 0.0 mm 803 W/m2
15:05 19.4 °C 5.8 °C 1020.3 hPa WSW 1.4 km/h 1.6 km/h 41% 0.0 mm 789 W/m2
15:10 19.7 °C 5.4 °C 1020.3 hPa WNW 1.4 km/h 6.4 km/h 39% 0.0 mm 833 W/m2
15:15 19.9 °C 6.3 °C 1020.0 hPa Calm   4.8 km/h 41% 0.0 mm 798 W/m2
15:20 20.2 °C 5.8 °C 1020.0 hPa Calm   4.8 km/h 39% 0.0 mm 729 W/m2
15:25 20.2 °C 6.5 °C 1020.0 hPa NNW 3.2 km/h 4.8 km/h 41% 0.0 mm 828 W/m2
15:30 20.2 °C 6.5 °C 1020.0 hPa ESE 3.2 km/h 8 km/h 41% 0.0 mm 563 W/m2
15:35 20.1 °C 5.7 °C 1020.0 hPa SW 3.2 km/h 6.4 km/h 39% 0.0 mm 619 W/m2
15:40 19.9 °C 5.2 °C 1019.6 hPa NNE 4.7 km/h 6.4 km/h 38% 0.0 mm 874 W/m2
15:45 19.9 °C 5.2 °C 1019.6 hPa NNW 3.2 km/h 11.3 km/h 38% 0.0 mm 791 W/m2
15:50 19.8 °C 5.4 °C 1019.6 hPa NNW 1.4 km/h 6.4 km/h 39% 0.0 mm 640 W/m2
15:55 19.7 °C 5 °C 1019.6 hPa NNW 3.2 km/h 3.2 km/h 38% 0.0 mm 638 W/m2
16:00 19.7 °C 6.1 °C 1019.6 hPa SE 1.4 km/h 6.4 km/h 41% 0.0 mm 338 W/m2
16:05 19.4 °C 5.5 °C 1019.6 hPa WSW 3.2 km/h 3.2 km/h 40% 0.0 mm 519 W/m2
16:10 19.3 °C 5 °C 1019.6 hPa SW 1.4 km/h 4.8 km/h 39% 0.0 mm 468 W/m2
16:15 19.2 °C 4.9 °C 1019.3 hPa NNW 1.4 km/h 4.8 km/h 39% 0.0 mm 640 W/m2
16:21 19.3 °C 5.4 °C 1019.3 hPa West 3.2 km/h 12.9 km/h 40% 0.0 mm 327 W/m2
16:26 19.1 °C 5.2 °C 1019.3 hPa NNE 3.2 km/h 9.7 km/h 40% 0.0 mm 332 W/m2
16:31 19.1 °C 5.2 °C 1019.3 hPa East 1.4 km/h 12.9 km/h 40% 0.0 mm 339 W/m2
16:36 19.2 °C 5.3 °C 1019.3 hPa West 6.4 km/h 6.4 km/h 40% 0.0 mm 329 W/m2
16:41 19.2 °C 6 °C 1019.3 hPa NNW 6.4 km/h 8 km/h 42% 0.0 mm 297 W/m2
16:46 19.2 °C 5.6 °C 1019.3 hPa WNW 3.2 km/h 9.7 km/h 41% 0.0 mm 281 W/m2
16:51 19.1 °C 5.5 °C 1019.3 hPa ENE 1.4 km/h 6.4 km/h 41% 0.0 mm 301 W/m2
16:56 19.1 °C 5.9 °C 1019.3 hPa WNW 4.7 km/h 6.4 km/h 42% 0.0 mm 392 W/m2
17:01 19.1 °C 5.5 °C 1019.3 hPa NNW 3.2 km/h 4.8 km/h 41% 0.0 mm 329 W/m2
17:06 19.2 °C 5.6 °C 1019.3 hPa WNW 4.7 km/h 8 km/h 41% 0.0 mm 385 W/m2
17:11 19.2 °C 5.6 °C 1019.3 hPa NW 1.4 km/h 3.2 km/h 41% 0.0 mm 355 W/m2
17:16 19.2 °C 5.6 °C 1019.3 hPa NNW 4.7 km/h 6.4 km/h 41% 0.0 mm 281 W/m2
17:21 19.2 °C 6 °C 1019.3 hPa NE 1.4 km/h 4.8 km/h 42% 0.0 mm 220 W/m2
17:26 19.2 °C 5.6 °C 1019.3 hPa WNW 4.7 km/h 4.8 km/h 41% 0.0 mm 311 W/m2
17:31 19.2 °C 5.6 °C 1019.3 hPa NE 1.4 km/h 4.8 km/h 41% 0.0 mm 392 W/m2
17:36 19.3 °C 7.1 °C 1019.3 hPa NNE 3.2 km/h 9.7 km/h 45% 0.0 mm 315 W/m2
17:41 19.4 °C 5.5 °C 1019.3 hPa NE 1.4 km/h 3.2 km/h 40% 0.0 mm 288 W/m2
17:46 19.5 °C 5.5 °C 1019.3 hPa NW 1.4 km/h 9.7 km/h 40% 0.0 mm 359 W/m2
17:51 19.4 °C 5.8 °C 1019.3 hPa NNW 1.4 km/h 8 km/h 41% 0.0 mm 564 W/m2
17:56 19.7 °C 5 °C 1019.3 hPa NE 1.4 km/h 9.7 km/h 38% 0.0 mm 510 W/m2
18:01 19.8 °C 5.4 °C 1019.0 hPa NE 4.7 km/h 12.9 km/h 39% 0.0 mm 441 W/m2
18:06 19.8 °C 4.7 °C 1019.0 hPa NW 7.9 km/h 9.7 km/h 37% 0.0 mm 417 W/m2
18:11 20.1 °C 5.3 °C 1019.0 hPa SW 1.4 km/h 12.9 km/h 38% 0.0 mm 397 W/m2
18:16 20.2 °C 5 °C 1019.0 hPa WNW 4.7 km/h 4.8 km/h 37% 0.0 mm 385 W/m2
18:21 20.1 °C 4.6 °C 1019.0 hPa West 3.2 km/h 11.3 km/h 36% 0.0 mm 373 W/m2
18:26 20.1 °C 4.2 °C 1019.0 hPa NNW 3.2 km/h 11.3 km/h 35% 0.0 mm 362 W/m2
18:31 19.9 °C 4 °C 1019.0 hPa West 4.7 km/h 12.9 km/h 35% 0.0 mm 348 W/m2
18:36 19.7 °C 3.8 °C 1019.0 hPa WNW 1.4 km/h 9.7 km/h 35% 0.0 mm 334 W/m2
18:41 19.7 °C 4.2 °C 1019.0 hPa NW 3.2 km/h 11.3 km/h 36% 0.0 mm 320 W/m2
18:46 19.8 °C 3.9 °C 1019.0 hPa NNW 3.2 km/h 6.4 km/h 35% 0.0 mm 309 W/m2
18:51 19.8 °C 4.3 °C 1019.0 hPa ENE 3.2 km/h 3.2 km/h 36% 0.0 mm 294 W/m2
18:56 19.7 °C 3.8 °C 1019.0 hPa North 4.7 km/h 8 km/h 35% 0.0 mm 281 W/m2
19:01 19.9 °C 4 °C 1018.6 hPa Calm   3.2 km/h 35% 0.0 mm 265 W/m2
19:06 20.1 °C 3.7 °C 1019.0 hPa NW 3.2 km/h 11.3 km/h 34% 0.0 mm 257 W/m2
19:11 19.8 °C 3.9 °C 1018.6 hPa WSW 6.4 km/h 11.3 km/h 35% 0.0 mm 241 W/m2
19:17 19.8 °C 3.9 °C 1019.0 hPa NNE 1.4 km/h 4.8 km/h 35% 0.0 mm 227 W/m2
19:22 19.9 °C 4.4 °C 1019.0 hPa WNW 1.4 km/h 11.3 km/h 36% 0.0 mm 213 W/m2
19:27 19.9 °C 4 °C 1019.0 hPa West 3.2 km/h 3.2 km/h 35% 0.0 mm 195 W/m2
19:32 19.8 °C 3.9 °C 1018.6 hPa NE 1.4 km/h 3.2 km/h 35% 0.0 mm 181 W/m2
19:37 19.7 °C 3.8 °C 1018.6 hPa Calm   3.2 km/h 35% 0.0 mm 163 W/m2
19:42 19.7 °C 4.6 °C 1018.6 hPa Calm   1.6 km/h 37% 0.0 mm 155 W/m2
19:47 19.7 °C 4.6 °C 1019.0 hPa WNW 3.2 km/h 3.2 km/h 37% 0.0 mm 139 W/m2
19:52 19.7 °C 6.4 °C 1018.6 hPa Calm   3.2 km/h 42% 0.0 mm 123 W/m2
19:57 19.8 °C 6.2 °C 1018.6 hPa WNW 1.4 km/h 3.2 km/h 41% 0.0 mm 114 W/m2
20:02 19.8 °C 6.5 °C 1019.0 hPa WNW 4.7 km/h 4.8 km/h 42% 0.0 mm 100 W/m2
20:07 19.4 °C 5.1 °C 1019.0 hPa West 3.2 km/h 9.7 km/h 39% 0.0 mm 88 W/m2
20:12 19 °C 5.4 °C 1019.0 hPa West 1.4 km/h 3.2 km/h 41% 0.0 mm 76 W/m2
20:17 18.9 °C 6 °C 1019.0 hPa West 1.4 km/h 9.7 km/h 43% 0.0 mm 65 W/m2
20:22 18.8 °C 6 °C 1019.0 hPa West 3.2 km/h 4.8 km/h 43% 0.0 mm 54 W/m2
20:27 18.6 °C 6.1 °C 1019.0 hPa WSW 4.7 km/h 4.8 km/h 44% 0.0 mm 46 W/m2
20:32 18.3 °C 6.2 °C 1019.0 hPa WSW 1.4 km/h 3.2 km/h 45% 0.0 mm 37 W/m2
20:37 18.1 °C 5.7 °C 1019.0 hPa WSW 1.4 km/h 4.8 km/h 44% 0.0 mm 30 W/m2
20:42 17.8 °C 5.7 °C 1019.0 hPa WSW 3.2 km/h 6.4 km/h 45% 0.0 mm 25 W/m2
20:47 17.4 °C 6 °C 1019.0 hPa WSW 1.4 km/h 3.2 km/h 47% 0.0 mm 19 W/m2
20:52 17.2 °C 6.1 °C 1019.0 hPa Calm   1.6 km/h 48% 0.0 mm 16 W/m2
20:58 17 °C 5.6 °C 1019.0 hPa Calm   3.2 km/h 47% 0.0 mm 12 W/m2
21:03 16.8 °C 6 °C 1019.0 hPa West 3.2 km/h 3.2 km/h 49% 0.0 mm 11 W/m2
21:08 16.5 °C 5.7 °C 1019.0 hPa West 1.4 km/h 3.2 km/h 49% 0.0 mm 7 W/m2
21:13 16.2 °C 5.8 °C 1019.0 hPa West 1.4 km/h 3.2 km/h 50% 0.0 mm 5 W/m2
21:18 16 °C 6.1 °C 1019.0 hPa West 1.4 km/h 3.2 km/h 52% 0.0 mm 0 W/m2
21:23 15.8 °C 6.2 °C 1019.0 hPa Calm   1.6 km/h 53% 0.0 mm 0 W/m2
21:28 15.6 °C 6.3 °C 1019.0 hPa West 1.4 km/h 1.6 km/h 54% 0.0 mm 0 W/m2
21:33 15.3 °C 6.3 °C 1019.0 hPa West 1.4 km/h 1.6 km/h 55% 0.0 mm 0 W/m2
21:38 15 °C 6.3 °C 1019.3 hPa West 3.2 km/h 4.8 km/h 56% 0.0 mm 0 W/m2
21:43 14.8 °C 6.4 °C 1019.3 hPa West 1.4 km/h 3.2 km/h 57% 0.0 mm 0 W/m2
21:48 14.6 °C 6.4 °C 1019.3 hPa West 1.4 km/h 4.8 km/h 58% 0.0 mm 0 W/m2
21:53 14.4 °C 6.2 °C 1019.6 hPa West 1.4 km/h 3.2 km/h 58% 0.0 mm 0 W/m2
21:58 14.3 °C 6.4 °C 1019.6 hPa West 1.4 km/h 3.2 km/h 59% 0.0 mm 0 W/m2
22:03 14.2 °C 6.3 °C 1019.6 hPa WNW 3.2 km/h 3.2 km/h 59% 0.0 mm 0 W/m2
22:08 14 °C 6.4 °C 1019.6 hPa West 4.7 km/h 9.7 km/h 60% 0.0 mm 0 W/m2
22:13 14 °C 6.4 °C 1019.6 hPa WNW 1.4 km/h 3.2 km/h 60% 0.0 mm 0 W/m2
22:18 13.9 °C 6.5 °C 1019.6 hPa WNW 3.2 km/h 8 km/h 61% 0.0 mm 0 W/m2
22:23 13.8 °C 6.2 °C 1020.0 hPa West 4.7 km/h 6.4 km/h 60% 0.0 mm 0 W/m2
22:28 13.8 °C 6.2 °C 1020.0 hPa West 6.4 km/h 9.7 km/h 60% 0.0 mm 0 W/m2
22:33 13.9 °C 6 °C 1020.0 hPa West 1.4 km/h 6.4 km/h 59% 0.0 mm 0 W/m2
22:38 13.9 °C 5.5 °C 1020.0 hPa WNW 3.2 km/h 9.7 km/h 57% 0.0 mm 0 W/m2
22:43 14 °C 5.6 °C 1020.3 hPa West 6.4 km/h 8 km/h 57% 0.0 mm 0 W/m2
22:48 14 °C 5.4 °C 1020.0 hPa WSW 4.7 km/h 8 km/h 56% 0.0 mm 0 W/m2
22:53 14 °C 5.4 °C 1020.0 hPa West 3.2 km/h 4.8 km/h 56% 0.0 mm 0 W/m2
22:58 13.9 °C 5.3 °C 1020.0 hPa WNW 3.2 km/h 8 km/h 56% 0.0 mm 0 W/m2
Juneau County Weather
Compliments of Weather Underground - 4 mb